createdAt,value
2023-05-10T00:01:03.756Z,15.90
2023-05-10T00:03:30.984Z,15.90
2023-05-10T00:05:58.185Z,15.90
2023-05-10T00:08:25.376Z,15.80
2023-05-10T00:10:52.925Z,15.80
2023-05-10T00:13:20.357Z,15.80
2023-05-10T00:15:47.411Z,15.80
2023-05-10T00:18:14.603Z,15.70
2023-05-10T00:20:41.954Z,15.60
2023-05-10T00:23:09.196Z,15.60
2023-05-10T00:25:36.351Z,15.60
2023-05-10T00:28:03.405Z,15.60
2023-05-10T00:30:31.911Z,15.60
2023-05-10T00:32:59.740Z,15.60
2023-05-10T00:35:27.199Z,15.60
2023-05-10T00:37:54.492Z,15.50
2023-05-10T00:40:21.986Z,15.40
2023-05-10T00:42:49.268Z,15.30
2023-05-10T00:45:17.700Z,15.30
2023-05-10T00:47:44.793Z,15.30
2023-05-10T00:50:11.892Z,15.30
2023-05-10T00:52:39.209Z,15.20
2023-05-10T00:55:07.324Z,15.20
2023-05-10T00:57:34.452Z,15.20
2023-05-10T01:00:01.452Z,15.10
2023-05-10T01:02:28.604Z,15.20
2023-05-10T01:04:56.346Z,15.10
2023-05-10T01:07:24.502Z,15.10
2023-05-10T01:09:51.549Z,15.10
2023-05-10T01:12:18.652Z,15.00
2023-05-10T01:14:45.744Z,14.90
2023-05-10T01:17:12.786Z,14.90
2023-05-10T01:19:39.851Z,14.90
2023-05-10T01:22:22.916Z,14.90
2023-05-10T01:24:58.842Z,14.90
2023-05-10T01:27:56.392Z,14.90
2023-05-10T01:30:35.442Z,14.90
2023-05-10T01:33:27.085Z,14.90
2023-05-10T01:36:10.095Z,14.80
2023-05-10T01:38:53.188Z,14.80
2023-05-10T01:41:27.549Z,14.80
2023-05-10T01:43:58.990Z,14.80
2023-05-10T01:46:39.992Z,14.80
2023-05-10T01:49:25.670Z,14.80
2023-05-10T01:51:55.890Z,14.80
2023-05-10T01:54:23.741Z,14.70
2023-05-10T01:56:54.201Z,14.80
2023-05-10T01:59:21.161Z,14.70
2023-05-10T02:01:48.275Z,14.80
2023-05-10T02:04:17.002Z,14.70
2023-05-10T02:06:44.673Z,14.60
2023-05-10T02:09:15.341Z,14.60
2023-05-10T02:11:42.958Z,14.60
2023-05-10T02:14:10.779Z,14.50
2023-05-10T02:16:38.179Z,14.50
2023-05-10T02:19:05.384Z,14.50
2023-05-10T02:21:32.487Z,14.40
2023-05-10T02:24:01.655Z,14.40
2023-05-10T02:26:28.812Z,14.40
2023-05-10T02:28:56.101Z,14.40
2023-05-10T02:31:23.372Z,14.40
2023-05-10T02:33:50.470Z,14.40
2023-05-10T02:36:17.566Z,14.40
2023-05-10T02:38:45.656Z,14.40
2023-05-10T02:41:12.631Z,14.30
2023-05-10T02:43:39.606Z,14.20
2023-05-10T02:46:06.900Z,14.20
2023-05-10T02:48:34.058Z,14.10
2023-05-10T02:51:04.182Z,14.10
2023-05-10T02:53:37.019Z,14.10
2023-05-10T02:56:09.287Z,14.00
2023-05-10T02:58:36.724Z,14.00
2023-05-10T03:01:04.138Z,14.00
2023-05-10T03:03:31.188Z,13.90
2023-05-10T03:05:59.633Z,13.90
2023-05-10T03:08:26.738Z,13.80
2023-05-10T03:11:15.341Z,13.60
2023-05-10T03:14:03.327Z,13.60
2023-05-10T03:16:35.727Z,13.60
2023-05-10T03:19:23.695Z,13.60
2023-05-10T03:21:52.520Z,13.50
2023-05-10T03:24:21.620Z,13.50
2023-05-10T03:26:48.668Z,13.50
2023-05-10T03:29:15.756Z,13.50
2023-05-10T03:31:42.992Z,13.50
2023-05-10T03:34:10.201Z,13.60
2023-05-10T03:36:37.502Z,13.60
2023-05-10T03:39:04.736Z,13.60
2023-05-10T03:41:31.841Z,13.60
2023-05-10T03:43:58.887Z,13.60
2023-05-10T03:46:26.153Z,13.60
2023-05-10T03:48:53.240Z,13.60
2023-05-10T03:51:20.531Z,13.60
2023-05-10T03:53:51.345Z,13.60
2023-05-10T03:56:18.412Z,13.60
2023-05-10T03:58:45.869Z,13.60
2023-05-10T04:01:13.081Z,13.60
2023-05-10T04:03:40.325Z,13.60
2023-05-10T04:06:09.371Z,13.60
2023-05-10T04:08:36.728Z,13.60
2023-05-10T04:11:10.673Z,13.70
2023-05-10T04:13:38.357Z,13.60
2023-05-10T04:16:05.999Z,13.60
2023-05-10T04:18:33.456Z,13.60
2023-05-10T04:21:00.553Z,13.50
2023-05-10T04:23:28.787Z,13.50
2023-05-10T04:26:03.013Z,13.50
2023-05-10T04:28:30.083Z,13.60
2023-05-10T04:31:09.964Z,13.70
2023-05-10T04:33:37.381Z,13.80
2023-05-10T04:36:04.966Z,13.80
2023-05-10T04:38:32.539Z,13.80
2023-05-10T04:41:08.775Z,13.90
2023-05-10T04:43:36.041Z,13.90
2023-05-10T04:46:03.350Z,14.00
2023-05-10T04:48:30.711Z,13.90
2023-05-10T04:50:58.297Z,13.80
2023-05-10T04:53:25.354Z,13.90
2023-05-10T04:55:52.679Z,13.90
2023-05-10T04:58:19.773Z,14.10
2023-05-10T05:00:46.946Z,14.10
2023-05-10T05:03:16.204Z,14.20
2023-05-10T05:05:43.474Z,14.30
2023-05-10T05:08:10.697Z,14.40
2023-05-10T05:10:37.864Z,14.40
2023-05-10T05:13:06.503Z,14.40
2023-05-10T05:15:33.834Z,14.40
2023-05-10T05:18:01.304Z,14.40
2023-05-10T05:20:28.610Z,14.50
2023-05-10T05:22:55.915Z,14.50
2023-05-10T05:25:23.192Z,14.70
2023-05-10T05:27:53.121Z,14.70
2023-05-10T05:30:21.101Z,14.90
2023-05-10T05:32:51.376Z,14.90
2023-05-10T05:35:23.307Z,14.90
2023-05-10T05:37:50.359Z,14.90
2023-05-10T05:40:17.499Z,15.00
2023-05-10T05:42:44.541Z,15.10
2023-05-10T05:45:14.449Z,15.20
2023-05-10T05:47:42.109Z,15.20
2023-05-10T05:50:09.867Z,15.30
2023-05-10T05:52:37.303Z,15.30
2023-05-10T05:55:07.675Z,15.30
2023-05-10T05:57:35.175Z,15.40
2023-05-10T06:00:03.608Z,15.50
2023-05-10T06:02:30.895Z,15.50
2023-05-10T06:04:58.150Z,15.70
2023-05-10T06:07:25.344Z,15.80
2023-05-10T06:09:52.498Z,16.00
2023-05-10T06:12:19.667Z,16.10
2023-05-10T06:14:46.852Z,16.20
2023-05-10T06:17:14.022Z,16.20
2023-05-10T06:19:42.844Z,16.30
2023-05-10T06:22:09.980Z,16.40
2023-05-10T06:24:37.354Z,16.60
2023-05-10T06:27:05.347Z,16.70
2023-05-10T06:29:32.868Z,16.80
2023-05-10T06:32:00.006Z,16.90
2023-05-10T06:34:27.113Z,17.00
2023-05-10T06:36:54.238Z,17.00
2023-05-10T06:39:21.635Z,17.10
2023-05-10T06:41:48.954Z,17.10
2023-05-10T06:44:17.338Z,17.10
2023-05-10T06:46:44.586Z,17.10
2023-05-10T06:49:14.649Z,17.30
2023-05-10T06:51:41.839Z,17.50
2023-05-10T06:54:08.998Z,17.70
2023-05-10T06:56:36.504Z,17.80
2023-05-10T06:59:04.187Z,17.90
2023-05-10T07:01:31.319Z,18.00
2023-05-10T07:03:58.667Z,18.20
2023-05-10T07:06:33.276Z,18.40
2023-05-10T07:09:02.096Z,18.50
2023-05-10T07:11:29.425Z,18.60
2023-05-10T07:13:57.039Z,18.80
2023-05-10T07:16:24.486Z,19.20
2023-05-10T07:18:51.894Z,19.60
2023-05-10T07:21:19.088Z,19.90
2023-05-10T07:23:46.384Z,20.20
2023-05-10T07:26:19.456Z,20.50
2023-05-10T07:28:46.869Z,20.90
2023-05-10T07:31:14.021Z,21.30
2023-05-10T07:33:41.840Z,21.60
2023-05-10T07:36:09.100Z,21.90
2023-05-10T07:38:37.503Z,22.00
2023-05-10T07:41:05.709Z,22.20
2023-05-10T07:43:33.184Z,22.40
2023-05-10T07:46:00.963Z,22.50
2023-05-10T07:48:30.396Z,22.60
2023-05-10T07:50:57.748Z,22.60
2023-05-10T07:53:26.632Z,22.60
2023-05-10T07:55:59.251Z,22.60
2023-05-10T07:58:27.058Z,22.50
2023-05-10T08:00:54.349Z,22.50
2023-05-10T08:03:21.894Z,22.60
2023-05-10T08:05:49.453Z,22.70
2023-05-10T08:08:16.735Z,23.10
2023-05-10T08:10:43.915Z,23.30
2023-05-10T08:13:13.518Z,23.50
2023-05-10T08:15:42.433Z,23.60
2023-05-10T08:18:09.931Z,23.60
2023-05-10T08:20:37.164Z,23.50
2023-05-10T08:23:04.344Z,23.70
2023-05-10T08:25:32.482Z,24.00
2023-05-10T08:27:59.710Z,24.40
2023-05-10T08:30:26.837Z,24.70
2023-05-10T08:32:54.022Z,25.00
2023-05-10T08:35:21.294Z,25.40
2023-05-10T08:37:48.532Z,25.30
2023-05-10T08:40:16.054Z,25.20
2023-05-10T08:42:46.791Z,25.20
2023-05-10T08:45:14.032Z,25.40
2023-05-10T08:47:41.493Z,25.60
2023-05-10T08:50:08.869Z,25.90
2023-05-10T08:52:35.975Z,25.90
2023-05-10T08:55:03.531Z,25.80
2023-05-10T08:57:30.772Z,25.90
2023-05-10T08:59:57.878Z,25.80
2023-05-10T09:02:25.058Z,25.70
2023-05-10T09:04:52.799Z,25.70
2023-05-10T09:07:20.972Z,25.80
2023-05-10T09:09:48.372Z,25.70
2023-05-10T09:12:16.896Z,25.50
2023-05-10T09:14:44.972Z,25.50
2023-05-10T09:17:11.996Z,25.40
2023-05-10T09:19:39.584Z,25.10
2023-05-10T09:22:06.686Z,24.70
2023-05-10T09:24:33.813Z,24.70
2023-05-10T09:27:01.185Z,25.00
2023-05-10T09:29:29.468Z,25.30
2023-05-10T09:31:56.708Z,25.40
2023-05-10T09:34:33.217Z,25.50
2023-05-10T09:37:02.515Z,25.30
2023-05-10T09:39:33.410Z,25.00
2023-05-10T09:42:08.318Z,24.90
2023-05-10T09:44:35.623Z,25.00
2023-05-10T09:47:03.345Z,25.20
2023-05-10T09:49:30.864Z,25.60
2023-05-10T09:52:05.042Z,25.90
2023-05-10T09:54:33.027Z,26.00
2023-05-10T09:57:00.176Z,25.90
2023-05-10T09:59:28.440Z,25.90
2023-05-10T10:01:59.540Z,25.80
2023-05-10T10:04:27.235Z,25.90
2023-05-10T10:07:02.050Z,26.20
2023-05-10T10:09:29.536Z,26.50
2023-05-10T10:12:00.711Z,26.70
2023-05-10T10:14:27.888Z,26.90
2023-05-10T10:17:05.829Z,27.40
2023-05-10T10:19:36.727Z,27.70
2023-05-10T10:22:04.298Z,28.00
2023-05-10T10:24:31.439Z,28.00
2023-05-10T10:27:03.449Z,27.90
2023-05-10T10:30:11.731Z,27.70
2023-05-10T10:32:59.633Z,27.20
2023-05-10T10:35:26.860Z,27.00
2023-05-10T10:37:55.386Z,26.70
2023-05-10T10:40:34.630Z,26.70
2023-05-10T10:43:27.006Z,27.00
2023-05-10T10:46:18.768Z,27.20
2023-05-10T10:48:49.653Z,27.20
2023-05-10T10:51:16.873Z,27.50
2023-05-10T10:53:44.293Z,27.60
2023-05-10T10:56:12.911Z,27.90
2023-05-10T10:58:40.756Z,28.20
2023-05-10T11:01:16.304Z,28.40
2023-05-10T11:04:16.564Z,28.50
2023-05-10T11:06:43.859Z,28.60
2023-05-10T11:09:12.676Z,28.50
2023-05-10T11:11:59.211Z,28.40
2023-05-10T11:14:26.368Z,28.10
2023-05-10T11:16:53.680Z,27.90
2023-05-10T11:19:21.104Z,27.60
2023-05-10T11:22:07.027Z,27.30
2023-05-10T11:24:34.970Z,26.70
2023-05-10T11:27:02.667Z,26.40
2023-05-10T11:29:29.949Z,26.20
2023-05-10T11:31:59.357Z,25.90
2023-05-10T11:34:27.918Z,25.70
2023-05-10T11:36:55.969Z,25.40
2023-05-10T11:39:26.719Z,25.30
2023-05-10T11:41:53.837Z,25.30
2023-05-10T11:44:20.850Z,25.00
2023-05-10T11:46:48.067Z,24.90
2023-05-10T11:49:16.335Z,24.80
2023-05-10T11:51:44.803Z,25.00
2023-05-10T11:54:12.324Z,25.20
2023-05-10T11:56:42.211Z,25.40
2023-05-10T11:59:10.693Z,25.60
2023-05-10T12:01:37.923Z,25.70
2023-05-10T12:04:05.642Z,25.90
2023-05-10T12:06:36.280Z,26.10
2023-05-10T12:09:06.599Z,26.40
2023-05-10T12:11:33.939Z,26.70
2023-05-10T12:14:00.971Z,27.00
2023-05-10T12:16:30.371Z,27.20
2023-05-10T12:18:59.151Z,27.20
2023-05-10T12:21:26.612Z,27.30
2023-05-10T12:23:55.737Z,27.40
2023-05-10T12:26:24.014Z,27.50
2023-05-10T12:31:55.622Z,27.30
2023-05-10T12:34:26.073Z,27.20
2023-05-10T12:36:53.437Z,27.10
2023-05-10T12:39:21.563Z,26.90
2023-05-10T12:41:49.139Z,26.80
2023-05-10T12:44:16.464Z,26.70
2023-05-10T12:46:43.716Z,26.60
2023-05-10T12:49:11.690Z,26.60
2023-05-10T12:51:38.972Z,26.50
2023-05-10T12:54:06.044Z,26.40
2023-05-10T12:56:33.128Z,26.30
2023-05-10T12:59:06.518Z,26.20
2023-05-10T13:01:33.683Z,26.10
2023-05-10T13:04:01.445Z,26.10
2023-05-10T13:06:28.378Z,26.10
2023-05-10T13:08:55.612Z,26.20
2023-05-10T13:11:22.780Z,26.40
2023-05-10T13:13:49.820Z,26.40
2023-05-10T13:16:17.046Z,26.20
2023-05-10T13:18:44.098Z,26.10
2023-05-10T13:21:11.166Z,26.00
2023-05-10T13:23:38.359Z,25.90
2023-05-10T13:26:05.616Z,26.00
2023-05-10T13:28:32.780Z,26.10
2023-05-10T13:31:01.170Z,26.20
2023-05-10T13:33:28.348Z,26.20
2023-05-10T13:35:55.856Z,26.10
2023-05-10T13:38:23.090Z,26.10
2023-05-10T13:40:53.841Z,26.10
2023-05-10T13:43:21.137Z,26.10
2023-05-10T13:45:48.466Z,26.10
2023-05-10T13:48:15.857Z,26.00
2023-05-10T13:50:42.897Z,26.00
2023-05-10T13:53:10.037Z,26.00
2023-05-10T13:55:37.342Z,26.00
2023-05-10T13:58:04.399Z,26.00
2023-05-10T14:00:31.661Z,25.90
2023-05-10T14:02:58.810Z,25.80
2023-05-10T14:05:26.632Z,25.70
2023-05-10T14:07:54.784Z,25.60
2023-05-10T14:10:22.051Z,25.40
2023-05-10T14:12:50.144Z,25.30
2023-05-10T14:15:17.472Z,25.10
2023-05-10T14:17:44.707Z,25.10
2023-05-10T14:20:12.352Z,25.00
2023-05-10T14:22:39.609Z,25.00
2023-05-10T14:25:08.234Z,25.10
2023-05-10T14:27:35.361Z,25.10
2023-05-10T14:30:02.356Z,25.10
2023-05-10T14:32:29.653Z,25.10
2023-05-10T14:34:56.998Z,25.10
2023-05-10T14:37:24.101Z,25.10
2023-05-10T14:39:51.072Z,25.10
2023-05-10T14:42:18.182Z,25.10
2023-05-10T14:44:45.129Z,25.00
2023-05-10T14:47:12.463Z,25.00
2023-05-10T14:49:39.481Z,24.90
2023-05-10T14:52:06.607Z,24.90
2023-05-10T14:54:34.659Z,24.80
2023-05-10T14:57:01.773Z,24.80
2023-05-10T14:59:28.883Z,24.70
2023-05-10T15:01:56.755Z,24.60
2023-05-10T15:04:25.440Z,24.60
2023-05-10T15:06:54.690Z,24.50
2023-05-10T15:09:22.038Z,24.40
2023-05-10T15:11:49.118Z,24.50
2023-05-10T15:14:16.231Z,24.40
2023-05-10T15:16:43.175Z,24.40
2023-05-10T15:19:10.446Z,24.40
2023-05-10T15:21:40.085Z,24.30
2023-05-10T15:24:07.296Z,24.30
2023-05-10T15:26:34.484Z,24.20
2023-05-10T15:29:01.683Z,24.10
2023-05-10T15:31:28.999Z,23.90
2023-05-10T15:33:58.596Z,23.80
2023-05-10T15:36:27.743Z,23.70
2023-05-10T15:38:55.864Z,23.60
2023-05-10T15:41:23.129Z,23.50
2023-05-10T15:43:50.316Z,23.50
2023-05-10T15:46:17.754Z,23.50
2023-05-10T15:48:44.946Z,23.50
2023-05-10T15:51:12.026Z,23.50
2023-05-10T15:53:49.472Z,23.40
2023-05-10T15:56:25.236Z,23.40
2023-05-10T15:58:52.403Z,23.30
2023-05-10T16:01:19.936Z,23.30
2023-05-10T16:03:50.242Z,23.30
2023-05-10T16:06:17.632Z,23.30
2023-05-10T16:08:50.358Z,23.20
2023-05-10T16:11:18.075Z,23.10
2023-05-10T16:13:45.070Z,23.10
2023-05-10T16:16:12.331Z,23.00
2023-05-10T16:18:39.834Z,23.00
2023-05-10T16:21:07.851Z,22.90
2023-05-10T16:23:38.332Z,22.90
2023-05-10T16:26:05.285Z,22.80
2023-05-10T16:28:32.521Z,22.70
2023-05-10T16:30:59.697Z,22.70
2023-05-10T16:33:27.096Z,22.60
2023-05-10T16:35:54.472Z,22.50
2023-05-10T16:38:22.024Z,22.40
2023-05-10T16:40:49.320Z,22.40
2023-05-10T16:43:16.553Z,22.30
2023-05-10T16:45:43.984Z,22.30
2023-05-10T16:48:11.159Z,21.90
2023-05-10T16:50:38.298Z,21.60
2023-05-10T16:53:05.464Z,21.40
2023-05-10T16:55:32.520Z,21.30
2023-05-10T16:58:01.071Z,21.30
2023-05-10T17:00:28.712Z,21.40
2023-05-10T17:02:56.005Z,21.40
2023-05-10T17:05:23.513Z,21.40
2023-05-10T17:07:50.713Z,21.40
2023-05-10T17:10:17.922Z,21.30
2023-05-10T17:12:45.732Z,21.30
2023-05-10T17:15:13.217Z,21.30
2023-05-10T17:17:40.371Z,21.10
2023-05-10T17:20:08.639Z,21.00
2023-05-10T17:22:35.679Z,21.00
2023-05-10T17:25:03.004Z,20.90
2023-05-10T17:27:30.392Z,20.80
2023-05-10T17:29:57.989Z,20.40
2023-05-10T17:32:25.731Z,20.10
2023-05-10T17:34:53.141Z,20.00
2023-05-10T17:37:20.528Z,20.10
2023-05-10T17:39:47.785Z,20.20
2023-05-10T17:42:17.824Z,20.30
2023-05-10T17:44:45.091Z,20.30
2023-05-10T17:47:12.682Z,20.10
2023-05-10T17:49:40.146Z,19.90
2023-05-10T17:52:07.628Z,19.70
2023-05-10T17:54:34.943Z,19.60
2023-05-10T17:57:03.944Z,19.60
2023-05-10T17:59:31.312Z,19.60
2023-05-10T18:01:58.537Z,19.60
2023-05-10T18:04:26.917Z,19.60
2023-05-10T18:07:01.843Z,19.60
2023-05-10T18:09:29.347Z,19.60
2023-05-10T18:11:56.433Z,19.70
2023-05-10T18:14:36.541Z,19.60
2023-05-10T18:17:08.310Z,19.60
2023-05-10T18:19:35.528Z,19.50
2023-05-10T18:22:02.886Z,19.50
2023-05-10T18:24:39.029Z,19.50
2023-05-10T18:27:13.763Z,19.50
2023-05-10T18:29:40.919Z,19.60
2023-05-10T18:32:08.087Z,19.60
2023-05-10T18:34:35.371Z,19.60
2023-05-10T18:37:07.538Z,19.50
2023-05-10T18:39:35.287Z,19.40
2023-05-10T18:42:02.348Z,19.40
2023-05-10T18:44:29.625Z,19.40
2023-05-10T18:46:57.070Z,19.50
2023-05-10T18:49:24.217Z,19.30
2023-05-10T18:51:51.707Z,19.30
2023-05-10T18:54:19.146Z,19.30
2023-05-10T18:56:46.451Z,19.40
2023-05-10T18:59:15.797Z,19.30
2023-05-10T19:01:42.951Z,19.30
2023-05-10T19:04:10.287Z,19.30
2023-05-10T19:06:37.477Z,19.40
2023-05-10T19:09:04.714Z,19.40
2023-05-10T19:11:34.197Z,19.50
2023-05-10T19:14:01.955Z,19.40
2023-05-10T19:16:30.856Z,19.50
2023-05-10T19:19:00.524Z,19.50
2023-05-10T19:21:28.415Z,19.50
2023-05-10T19:23:57.836Z,19.50
2023-05-10T19:26:25.263Z,19.50
2023-05-10T19:28:52.757Z,19.60
2023-05-10T19:31:20.764Z,19.60
2023-05-10T19:33:47.979Z,19.60
2023-05-10T19:36:15.364Z,19.40
2023-05-10T19:38:42.581Z,19.40
2023-05-10T19:41:09.698Z,19.30
2023-05-10T19:43:38.121Z,19.10
2023-05-10T19:46:05.410Z,19.00
2023-05-10T19:48:32.585Z,18.90
2023-05-10T19:51:01.109Z,18.80
2023-05-10T19:53:28.343Z,18.90
2023-05-10T19:55:56.203Z,18.90
2023-05-10T19:58:23.940Z,19.00
2023-05-10T20:00:51.042Z,19.10
2023-05-10T20:03:18.316Z,19.20
2023-05-10T20:05:45.452Z,19.20
2023-05-10T20:08:12.758Z,19.20
2023-05-10T20:10:40.036Z,19.20
2023-05-10T20:13:07.353Z,19.20
2023-05-10T20:15:35.492Z,19.10
2023-05-10T20:18:03.911Z,19.10
2023-05-10T20:20:31.345Z,19.00
2023-05-10T20:22:58.560Z,19.00
2023-05-10T20:25:25.793Z,19.00
2023-05-10T20:27:53.096Z,19.10
2023-05-10T20:30:20.554Z,19.10
2023-05-10T20:32:48.051Z,19.10
2023-05-10T20:35:15.577Z,19.10
2023-05-10T20:37:42.601Z,19.00
2023-05-10T20:40:10.139Z,18.90
2023-05-10T20:42:37.359Z,19.00
2023-05-10T20:45:04.833Z,18.90
2023-05-10T20:47:32.766Z,18.90
2023-05-10T20:50:01.199Z,18.80
2023-05-10T20:52:29.037Z,18.80
2023-05-10T20:54:56.354Z,18.80
2023-05-10T20:57:26.518Z,18.80
2023-05-10T21:00:02.849Z,18.80
2023-05-10T21:02:29.986Z,18.80
2023-05-10T21:04:59.781Z,18.70
2023-05-10T21:07:27.075Z,18.70
2023-05-10T21:09:54.308Z,18.70
2023-05-10T21:12:21.498Z,18.70
2023-05-10T21:14:48.786Z,18.70
2023-05-10T21:17:18.042Z,18.70
2023-05-10T21:19:46.423Z,18.70
2023-05-10T21:22:14.010Z,18.60
2023-05-10T21:24:41.148Z,18.60
2023-05-10T21:27:16.517Z,18.60
2023-05-10T21:29:45.092Z,18.70
2023-05-10T21:32:12.314Z,18.60
2023-05-10T21:34:39.463Z,18.70
2023-05-10T21:37:09.666Z,18.60
2023-05-10T21:39:37.255Z,18.60
2023-05-10T21:42:04.797Z,18.70
2023-05-10T21:44:32.269Z,18.70
2023-05-10T21:46:59.338Z,18.60
2023-05-10T21:49:26.657Z,18.70
2023-05-10T21:51:53.770Z,18.70
2023-05-10T21:54:20.875Z,18.70
2023-05-10T21:56:47.978Z,18.70
2023-05-10T21:59:15.328Z,18.60
2023-05-10T22:01:44.102Z,18.60
2023-05-10T22:04:12.460Z,18.60
2023-05-10T22:06:39.667Z,18.50
2023-05-10T22:09:10.385Z,18.50
2023-05-10T22:11:41.253Z,18.50
2023-05-10T22:14:08.576Z,18.40
2023-05-10T22:16:36.029Z,18.40
2023-05-10T22:19:03.131Z,18.40
2023-05-10T22:21:30.896Z,18.40
2023-05-10T22:23:58.002Z,18.40
2023-05-10T22:26:26.343Z,18.40
2023-05-10T22:28:53.490Z,18.40
2023-05-10T22:31:20.904Z,18.30
2023-05-10T22:33:48.206Z,18.30
2023-05-10T22:36:16.975Z,18.30
2023-05-10T22:38:44.216Z,18.30
2023-05-10T22:41:11.567Z,18.30
2023-05-10T22:43:40.062Z,18.30
2023-05-10T22:46:07.307Z,18.30
2023-05-10T22:48:35.108Z,18.30
2023-05-10T22:51:02.367Z,18.20
2023-05-10T22:53:29.585Z,18.20
2023-05-10T22:55:56.855Z,18.20
2023-05-10T22:58:24.279Z,18.10
2023-05-10T23:00:52.503Z,18.10
2023-05-10T23:03:19.564Z,18.10
2023-05-10T23:05:46.806Z,18.10
2023-05-10T23:08:14.839Z,18.00
2023-05-10T23:10:42.388Z,18.00
2023-05-10T23:13:09.531Z,18.00
2023-05-10T23:15:38.485Z,18.00
2023-05-10T23:18:06.113Z,17.90
2023-05-10T23:20:33.331Z,17.80
2023-05-10T23:23:00.715Z,17.80
2023-05-10T23:25:27.903Z,17.80
2023-05-10T23:27:55.399Z,17.90
2023-05-10T23:30:22.758Z,17.90
2023-05-10T23:32:50.237Z,17.80
2023-05-10T23:35:17.649Z,17.80
2023-05-10T23:37:45.088Z,17.80
2023-05-10T23:40:13.696Z,17.80
2023-05-10T23:42:41.200Z,17.70
2023-05-10T23:45:08.839Z,17.70
2023-05-10T23:47:35.958Z,17.70
2023-05-10T23:50:03.890Z,17.60
2023-05-10T23:52:31.278Z,17.60
2023-05-10T23:54:58.437Z,17.60
2023-05-10T23:57:25.494Z,17.60
2023-05-10T23:59:52.625Z,17.60
